sensor_id;sensor_type;location;lat;lon;timestamp;temperature;humidity
14670;DHT22;7423;48.722;9.350;2023-02-12T00:00:49;7.90;99.90
14670;DHT22;7423;48.722;9.350;2023-02-12T00:03:17;7.90;99.90
14670;DHT22;7423;48.722;9.350;2023-02-12T00:05:44;7.90;99.90
14670;DHT22;7423;48.722;9.350;2023-02-12T00:08:11;7.90;99.90
14670;DHT22;7423;48.722;9.350;2023-02-12T00:10:41;7.90;99.90
14670;DHT22;7423;48.722;9.350;2023-02-12T00:13:10;7.90;99.90
14670;DHT22;7423;48.722;9.350;2023-02-12T00:15:38;7.90;99.90
14670;DHT22;7423;48.722;9.350;2023-02-12T00:18:06;7.90;99.90
14670;DHT22;7423;48.722;9.350;2023-02-12T00:20:33;7.90;99.90
14670;DHT22;7423;48.722;9.350;2023-02-12T00:23:00;7.90;99.90
14670;DHT22;7423;48.722;9.350;2023-02-12T00:25:26;7.90;99.90
14670;DHT22;7423;48.722;9.350;2023-02-12T00:27:53;7.90;99.90
14670;DHT22;7423;48.722;9.350;2023-02-12T00:30:20;7.90;99.90
14670;DHT22;7423;48.722;9.350;2023-02-12T00:32:47;7.90;99.90
14670;DHT22;7423;48.722;9.350;2023-02-12T00:35:14;7.90;99.90
14670;DHT22;7423;48.722;9.350;2023-02-12T00:37:41;7.80;99.90
14670;DHT22;7423;48.722;9.350;2023-02-12T00:40:08;7.80;99.90
14670;DHT22;7423;48.722;9.350;2023-02-12T00:42:35;7.80;99.90
14670;DHT22;7423;48.722;9.350;2023-02-12T00:45:02;7.80;99.90
14670;DHT22;7423;48.722;9.350;2023-02-12T00:47:29;7.70;99.90
14670;DHT22;7423;48.722;9.350;2023-02-12T00:49:56;7.70;99.90
14670;DHT22;7423;48.722;9.350;2023-02-12T00:52:23;7.70;99.90
14670;DHT22;7423;48.722;9.350;2023-02-12T00:54:50;7.70;99.90
14670;DHT22;7423;48.722;9.350;2023-02-12T00:57:17;7.70;99.90
14670;DHT22;7423;48.722;9.350;2023-02-12T00:59:44;7.70;99.90
14670;DHT22;7423;48.722;9.350;2023-02-12T01:02:10;7.80;99.90
14670;DHT22;7423;48.722;9.350;2023-02-12T01:04:37;7.80;99.90
14670;DHT22;7423;48.722;9.350;2023-02-12T01:07:04;7.80;99.90
14670;DHT22;7423;48.722;9.350;2023-02-12T01:09:31;7.80;99.90
14670;DHT22;7423;48.722;9.350;2023-02-12T01:11:58;7.80;99.90
14670;DHT22;7423;48.722;9.350;2023-02-12T01:14:25;7.90;99.90
14670;DHT22;7423;48.722;9.350;2023-02-12T01:16:52;7.80;99.90
14670;DHT22;7423;48.722;9.350;2023-02-12T01:19:19;7.80;99.90
14670;DHT22;7423;48.722;9.350;2023-02-12T01:21:45;7.80;99.90
14670;DHT22;7423;48.722;9.350;2023-02-12T01:24:12;7.80;99.90
14670;DHT22;7423;48.722;9.350;2023-02-12T01:26:39;7.80;99.90
14670;DHT22;7423;48.722;9.350;2023-02-12T01:29:07;7.80;99.90
14670;DHT22;7423;48.722;9.350;2023-02-12T01:31:36;7.80;99.90
14670;DHT22;7423;48.722;9.350;2023-02-12T01:34:05;7.80;99.90
14670;DHT22;7423;48.722;9.350;2023-02-12T01:36:33;7.70;99.90
14670;DHT22;7423;48.722;9.350;2023-02-12T01:39:01;7.70;99.90
14670;DHT22;7423;48.722;9.350;2023-02-12T01:41:35;7.70;99.90
14670;DHT22;7423;48.722;9.350;2023-02-12T01:46:42;7.70;99.90
14670;DHT22;7423;48.722;9.350;2023-02-12T01:52:26;7.70;99.90
14670;DHT22;7423;48.722;9.350;2023-02-12T01:54:59;7.70;99.90
14670;DHT22;7423;48.722;9.350;2023-02-12T01:57:31;7.60;99.90
14670;DHT22;7423;48.722;9.350;2023-02-12T02:00:03;7.60;99.90
14670;DHT22;7423;48.722;9.350;2023-02-12T02:02:33;7.70;99.90
14670;DHT22;7423;48.722;9.350;2023-02-12T02:05:02;7.70;99.90
14670;DHT22;7423;48.722;9.350;2023-02-12T02:07:29;7.60;99.90
14670;DHT22;7423;48.722;9.350;2023-02-12T02:09:57;7.70;99.90
14670;DHT22;7423;48.722;9.350;2023-02-12T02:12:25;7.60;99.90
14670;DHT22;7423;48.722;9.350;2023-02-12T02:15:11;7.60;99.90
14670;DHT22;7423;48.722;9.350;2023-02-12T02:20:49;7.60;99.90
14670;DHT22;7423;48.722;9.350;2023-02-12T02:24:04;7.60;99.90
14670;DHT22;7423;48.722;9.350;2023-02-12T02:27:09;7.70;99.90
14670;DHT22;7423;48.722;9.350;2023-02-12T02:32:54;7.70;99.90
14670;DHT22;7423;48.722;9.350;2023-02-12T02:35:55;7.70;99.90
14670;DHT22;7423;48.722;9.350;2023-02-12T02:38:56;7.70;99.90
14670;DHT22;7423;48.722;9.350;2023-02-12T02:41:53;7.70;99.90
14670;DHT22;7423;48.722;9.350;2023-02-12T02:44:27;7.60;99.90
14670;DHT22;7423;48.722;9.350;2023-02-12T02:47:00;7.70;99.90
14670;DHT22;7423;48.722;9.350;2023-02-12T02:49:38;7.70;99.90
14670;DHT22;7423;48.722;9.350;2023-02-12T02:52:15;7.70;99.90
14670;DHT22;7423;48.722;9.350;2023-02-12T02:54:51;7.70;99.90
14670;DHT22;7423;48.722;9.350;2023-02-12T02:57:27;7.70;99.90
14670;DHT22;7423;48.722;9.350;2023-02-12T03:00:13;7.70;99.90
14670;DHT22;7423;48.722;9.350;2023-02-12T03:02:47;7.70;99.90
14670;DHT22;7423;48.722;9.350;2023-02-12T03:05:23;7.70;99.90
14670;DHT22;7423;48.722;9.350;2023-02-12T03:08:04;7.70;99.90
14670;DHT22;7423;48.722;9.350;2023-02-12T03:10:40;7.70;99.90
14670;DHT22;7423;48.722;9.350;2023-02-12T03:13:17;7.60;99.90
14670;DHT22;7423;48.722;9.350;2023-02-12T03:16:46;7.70;99.90
14670;DHT22;7423;48.722;9.350;2023-02-12T03:18:55;7.60;99.90
14670;DHT22;7423;48.722;9.350;2023-02-12T03:21:32;7.60;99.90
14670;DHT22;7423;48.722;9.350;2023-02-12T03:27:19;7.60;99.90
14670;DHT22;7423;48.722;9.350;2023-02-12T03:29:51;7.70;99.90
14670;DHT22;7423;48.722;9.350;2023-02-12T03:35:20;7.60;99.90
14670;DHT22;7423;48.722;9.350;2023-02-12T03:38:03;7.60;99.90
14670;DHT22;7423;48.722;9.350;2023-02-12T03:40:39;7.60;99.90
14670;DHT22;7423;48.722;9.350;2023-02-12T03:43:12;7.80;99.90
14670;DHT22;7423;48.722;9.350;2023-02-12T03:45:54;7.80;99.90
14670;DHT22;7423;48.722;9.350;2023-02-12T03:48:33;7.80;99.90
14670;DHT22;7423;48.722;9.350;2023-02-12T03:53:37;7.70;99.90
14670;DHT22;7423;48.722;9.350;2023-02-12T03:56:08;7.60;99.90
14670;DHT22;7423;48.722;9.350;2023-02-12T03:58:40;7.60;99.90
14670;DHT22;7423;48.722;9.350;2023-02-12T04:01:09;7.60;99.90
14670;DHT22;7423;48.722;9.350;2023-02-12T04:03:36;7.60;99.90
14670;DHT22;7423;48.722;9.350;2023-02-12T04:06:04;7.60;99.90
14670;DHT22;7423;48.722;9.350;2023-02-12T04:08:31;7.60;99.90
14670;DHT22;7423;48.722;9.350;2023-02-12T04:14:35;7.60;99.90
14670;DHT22;7423;48.722;9.350;2023-02-12T04:17:34;7.60;99.90
14670;DHT22;7423;48.722;9.350;2023-02-12T04:23:06;7.60;99.90
14670;DHT22;7423;48.722;9.350;2023-02-12T04:26:05;7.60;99.90
14670;DHT22;7423;48.722;9.350;2023-02-12T04:35:04;7.60;99.90
14670;DHT22;7423;48.722;9.350;2023-02-12T04:37:42;7.60;99.90
14670;DHT22;7423;48.722;9.350;2023-02-12T04:40:15;7.60;99.90
14670;DHT22;7423;48.722;9.350;2023-02-12T04:42:45;7.60;99.90
14670;DHT22;7423;48.722;9.350;2023-02-12T04:45:22;7.60;99.90
14670;DHT22;7423;48.722;9.350;2023-02-12T04:47:51;7.60;99.90
14670;DHT22;7423;48.722;9.350;2023-02-12T04:50:19;7.60;99.90
14670;DHT22;7423;48.722;9.350;2023-02-12T04:52:46;7.60;99.90
14670;DHT22;7423;48.722;9.350;2023-02-12T04:55:13;7.50;99.90
14670;DHT22;7423;48.722;9.350;2023-02-12T04:57:41;7.50;99.90
14670;DHT22;7423;48.722;9.350;2023-02-12T05:00:11;7.50;99.90
14670;DHT22;7423;48.722;9.350;2023-02-12T05:02:40;7.50;99.90
14670;DHT22;7423;48.722;9.350;2023-02-12T05:05:07;7.50;99.90
14670;DHT22;7423;48.722;9.350;2023-02-12T05:07:34;7.50;99.90
14670;DHT22;7423;48.722;9.350;2023-02-12T05:10:01;7.50;99.90
14670;DHT22;7423;48.722;9.350;2023-02-12T05:12:28;7.50;99.90
14670;DHT22;7423;48.722;9.350;2023-02-12T05:14:54;7.50;99.90
14670;DHT22;7423;48.722;9.350;2023-02-12T05:17:22;7.50;99.90
14670;DHT22;7423;48.722;9.350;2023-02-12T05:19:50;7.60;99.90
14670;DHT22;7423;48.722;9.350;2023-02-12T05:22:17;7.60;99.90
14670;DHT22;7423;48.722;9.350;2023-02-12T05:24:44;7.60;99.90
14670;DHT22;7423;48.722;9.350;2023-02-12T05:27:11;7.70;99.90
14670;DHT22;7423;48.722;9.350;2023-02-12T05:29:38;7.70;99.90
14670;DHT22;7423;48.722;9.350;2023-02-12T05:32:05;7.70;99.90
14670;DHT22;7423;48.722;9.350;2023-02-12T05:34:33;7.60;99.90
14670;DHT22;7423;48.722;9.350;2023-02-12T05:37:00;7.60;99.90
14670;DHT22;7423;48.722;9.350;2023-02-12T05:39:27;7.60;99.90
14670;DHT22;7423;48.722;9.350;2023-02-12T05:41:54;7.50;99.90
14670;DHT22;7423;48.722;9.350;2023-02-12T05:44:21;7.60;99.90
14670;DHT22;7423;48.722;9.350;2023-02-12T05:46:47;7.60;99.90
14670;DHT22;7423;48.722;9.350;2023-02-12T05:49:14;7.60;99.90
14670;DHT22;7423;48.722;9.350;2023-02-12T05:51:41;7.50;99.90
14670;DHT22;7423;48.722;9.350;2023-02-12T05:54:09;7.50;99.90
14670;DHT22;7423;48.722;9.350;2023-02-12T05:56:44;7.50;99.90
14670;DHT22;7423;48.722;9.350;2023-02-12T05:59:18;7.50;99.90
14670;DHT22;7423;48.722;9.350;2023-02-12T06:01:48;7.50;99.90
14670;DHT22;7423;48.722;9.350;2023-02-12T06:04:25;7.50;99.90
14670;DHT22;7423;48.722;9.350;2023-02-12T06:06:54;7.50;99.90
14670;DHT22;7423;48.722;9.350;2023-02-12T06:09:22;7.50;99.90
14670;DHT22;7423;48.722;9.350;2023-02-12T06:11:50;7.50;99.90
14670;DHT22;7423;48.722;9.350;2023-02-12T06:14:18;7.50;99.90
14670;DHT22;7423;48.722;9.350;2023-02-12T06:16:48;7.50;99.90
14670;DHT22;7423;48.722;9.350;2023-02-12T06:19:16;7.50;99.90
14670;DHT22;7423;48.722;9.350;2023-02-12T06:21:44;7.50;99.90
14670;DHT22;7423;48.722;9.350;2023-02-12T06:24:13;7.50;99.90
14670;DHT22;7423;48.722;9.350;2023-02-12T06:26:41;7.40;99.90
14670;DHT22;7423;48.722;9.350;2023-02-12T06:29:09;7.40;99.90
14670;DHT22;7423;48.722;9.350;2023-02-12T06:31:36;7.40;99.90
14670;DHT22;7423;48.722;9.350;2023-02-12T06:34:06;7.40;99.90
14670;DHT22;7423;48.722;9.350;2023-02-12T06:36:40;7.40;99.90
14670;DHT22;7423;48.722;9.350;2023-02-12T06:39:11;7.40;99.90
14670;DHT22;7423;48.722;9.350;2023-02-12T06:41:40;7.40;99.90
14670;DHT22;7423;48.722;9.350;2023-02-12T06:44:07;7.40;99.90
14670;DHT22;7423;48.722;9.350;2023-02-12T06:46:36;7.40;99.90
14670;DHT22;7423;48.722;9.350;2023-02-12T06:49:03;7.40;99.90
14670;DHT22;7423;48.722;9.350;2023-02-12T06:51:30;7.40;99.90
14670;DHT22;7423;48.722;9.350;2023-02-12T06:53:57;7.40;99.90
14670;DHT22;7423;48.722;9.350;2023-02-12T06:56:25;7.40;99.90
14670;DHT22;7423;48.722;9.350;2023-02-12T06:58:57;7.40;99.90
14670;DHT22;7423;48.722;9.350;2023-02-12T07:01:27;7.40;99.90
14670;DHT22;7423;48.722;9.350;2023-02-12T07:03:57;7.40;99.90
14670;DHT22;7423;48.722;9.350;2023-02-12T07:06:27;7.40;99.90
14670;DHT22;7423;48.722;9.350;2023-02-12T07:08:55;7.40;99.90
14670;DHT22;7423;48.722;9.350;2023-02-12T07:11:23;7.40;99.90
14670;DHT22;7423;48.722;9.350;2023-02-12T07:13:51;7.40;99.90
14670;DHT22;7423;48.722;9.350;2023-02-12T07:16:18;7.40;99.90
14670;DHT22;7423;48.722;9.350;2023-02-12T07:18:45;7.50;99.90
14670;DHT22;7423;48.722;9.350;2023-02-12T07:21:14;7.40;99.90
14670;DHT22;7423;48.722;9.350;2023-02-12T07:23:45;7.40;99.90
14670;DHT22;7423;48.722;9.350;2023-02-12T07:26:17;7.40;99.90
14670;DHT22;7423;48.722;9.350;2023-02-12T07:28:45;7.40;99.90
14670;DHT22;7423;48.722;9.350;2023-02-12T07:31:15;7.50;99.90
14670;DHT22;7423;48.722;9.350;2023-02-12T07:33:47;7.50;99.90
14670;DHT22;7423;48.722;9.350;2023-02-12T07:36:17;7.50;99.90
14670;DHT22;7423;48.722;9.350;2023-02-12T07:38:45;7.50;99.90
14670;DHT22;7423;48.722;9.350;2023-02-12T07:41:24;7.50;99.90
14670;DHT22;7423;48.722;9.350;2023-02-12T07:43:57;7.50;99.90
14670;DHT22;7423;48.722;9.350;2023-02-12T07:46:27;7.60;99.90
14670;DHT22;7423;48.722;9.350;2023-02-12T07:49:01;7.70;99.90
14670;DHT22;7423;48.722;9.350;2023-02-12T07:51:31;7.80;99.90
14670;DHT22;7423;48.722;9.350;2023-02-12T07:54:00;7.90;99.90
14670;DHT22;7423;48.722;9.350;2023-02-12T07:56:30;7.80;99.90
14670;DHT22;7423;48.722;9.350;2023-02-12T07:59:01;7.80;99.90
14670;DHT22;7423;48.722;9.350;2023-02-12T08:01:34;7.80;99.90
14670;DHT22;7423;48.722;9.350;2023-02-12T08:04:11;7.80;99.90
14670;DHT22;7423;48.722;9.350;2023-02-12T08:06:45;7.80;99.90
14670;DHT22;7423;48.722;9.350;2023-02-12T08:09:18;7.90;99.90
14670;DHT22;7423;48.722;9.350;2023-02-12T08:11:47;7.80;99.90
14670;DHT22;7423;48.722;9.350;2023-02-12T08:14:17;7.90;99.90
14670;DHT22;7423;48.722;9.350;2023-02-12T08:16:46;7.90;99.90
14670;DHT22;7423;48.722;9.350;2023-02-12T08:19:14;7.90;99.90
14670;DHT22;7423;48.722;9.350;2023-02-12T08:21:49;7.90;99.90
14670;DHT22;7423;48.722;9.350;2023-02-12T08:24:17;7.90;99.90
14670;DHT22;7423;48.722;9.350;2023-02-12T08:26:44;7.90;99.90
14670;DHT22;7423;48.722;9.350;2023-02-12T08:29:14;8.00;99.90
14670;DHT22;7423;48.722;9.350;2023-02-12T08:31:47;8.00;99.90
14670;DHT22;7423;48.722;9.350;2023-02-12T08:34:28;8.10;99.90
14670;DHT22;7423;48.722;9.350;2023-02-12T08:36:57;8.10;99.90
14670;DHT22;7423;48.722;9.350;2023-02-12T08:39:26;8.20;99.90
14670;DHT22;7423;48.722;9.350;2023-02-12T08:41:55;8.20;99.90
14670;DHT22;7423;48.722;9.350;2023-02-12T08:44:23;8.20;99.90
14670;DHT22;7423;48.722;9.350;2023-02-12T08:46:51;8.20;99.90
14670;DHT22;7423;48.722;9.350;2023-02-12T08:49:21;8.30;99.90
14670;DHT22;7423;48.722;9.350;2023-02-12T08:51:52;8.30;99.90
14670;DHT22;7423;48.722;9.350;2023-02-12T08:54:23;8.30;99.90
14670;DHT22;7423;48.722;9.350;2023-02-12T08:56:59;8.40;99.90
14670;DHT22;7423;48.722;9.350;2023-02-12T08:59:27;8.50;99.90
14670;DHT22;7423;48.722;9.350;2023-02-12T09:01:54;8.50;99.90
14670;DHT22;7423;48.722;9.350;2023-02-12T09:04:24;8.50;99.90
14670;DHT22;7423;48.722;9.350;2023-02-12T09:06:52;8.60;99.90
14670;DHT22;7423;48.722;9.350;2023-02-12T09:09:20;8.60;99.90
14670;DHT22;7423;48.722;9.350;2023-02-12T09:11:48;8.70;99.90
14670;DHT22;7423;48.722;9.350;2023-02-12T09:14:16;8.70;99.90
14670;DHT22;7423;48.722;9.350;2023-02-12T09:16:44;8.80;99.90
14670;DHT22;7423;48.722;9.350;2023-02-12T09:19:12;8.80;99.90
14670;DHT22;7423;48.722;9.350;2023-02-12T09:21:40;8.90;99.90
14670;DHT22;7423;48.722;9.350;2023-02-12T09:24:07;8.90;99.90
14670;DHT22;7423;48.722;9.350;2023-02-12T09:26:35;8.90;99.90
14670;DHT22;7423;48.722;9.350;2023-02-12T09:29:03;8.90;99.90
14670;DHT22;7423;48.722;9.350;2023-02-12T09:31:31;9.00;99.90
14670;DHT22;7423;48.722;9.350;2023-02-12T09:34:02;9.00;99.90
14670;DHT22;7423;48.722;9.350;2023-02-12T09:36:30;9.00;99.90
14670;DHT22;7423;48.722;9.350;2023-02-12T09:38:57;9.00;99.90
14670;DHT22;7423;48.722;9.350;2023-02-12T09:41:35;9.10;99.90
14670;DHT22;7423;48.722;9.350;2023-02-12T09:44:51;9.10;99.90
14670;DHT22;7423;48.722;9.350;2023-02-12T09:47:47;9.10;99.90
14670;DHT22;7423;48.722;9.350;2023-02-12T09:50:29;9.10;99.90
14670;DHT22;7423;48.722;9.350;2023-02-12T09:53:16;9.20;99.90
14670;DHT22;7423;48.722;9.350;2023-02-12T09:55:45;9.20;99.90
14670;DHT22;7423;48.722;9.350;2023-02-12T09:58:32;8.40;99.90
14670;DHT22;7423;48.722;9.350;2023-02-12T10:01:10;9.30;99.90
14670;DHT22;7423;48.722;9.350;2023-02-12T10:03:39;9.30;99.90
14670;DHT22;7423;48.722;9.350;2023-02-12T10:06:12;9.30;99.90
14670;DHT22;7423;48.722;9.350;2023-02-12T10:11:53;9.40;99.90
14670;DHT22;7423;48.722;9.350;2023-02-12T10:14:37;9.40;99.90
14670;DHT22;7423;48.722;9.350;2023-02-12T10:25:58;9.60;99.90
14670;DHT22;7423;48.722;9.350;2023-02-12T10:28:39;9.60;99.90
14670;DHT22;7423;48.722;9.350;2023-02-12T10:31:23;9.60;99.90
14670;DHT22;7423;48.722;9.350;2023-02-12T10:33:56;9.60;99.90
14670;DHT22;7423;48.722;9.350;2023-02-12T10:36:41;9.60;99.90
14670;DHT22;7423;48.722;9.350;2023-02-12T10:41:40;9.70;99.90
14670;DHT22;7423;48.722;9.350;2023-02-12T10:44:28;9.70;99.90
14670;DHT22;7423;48.722;9.350;2023-02-12T10:46:55;9.80;99.90
14670;DHT22;7423;48.722;9.350;2023-02-12T10:49:22;9.80;99.90
14670;DHT22;7423;48.722;9.350;2023-02-12T10:52:10;9.80;99.90
14670;DHT22;7423;48.722;9.350;2023-02-12T10:55:23;9.90;99.90
14670;DHT22;7423;48.722;9.350;2023-02-12T10:57:56;9.90;99.90
14670;DHT22;7423;48.722;9.350;2023-02-12T11:00:30;10.00;99.90
14670;DHT22;7423;48.722;9.350;2023-02-12T11:03:22;10.00;99.90
14670;DHT22;7423;48.722;9.350;2023-02-12T11:05:49;9.90;99.90
14670;DHT22;7423;48.722;9.350;2023-02-12T11:08:34;9.90;99.90
14670;DHT22;7423;48.722;9.350;2023-02-12T11:19:04;10.00;99.90
14670;DHT22;7423;48.722;9.350;2023-02-12T11:21:33;10.00;99.90
14670;DHT22;7423;48.722;9.350;2023-02-12T11:24:27;10.00;99.90
14670;DHT22;7423;48.722;9.350;2023-02-12T11:27:24;10.00;99.90
14670;DHT22;7423;48.722;9.350;2023-02-12T11:30:16;10.10;99.90
14670;DHT22;7423;48.722;9.350;2023-02-12T11:32:44;10.00;99.90
14670;DHT22;7423;48.722;9.350;2023-02-12T11:37:51;10.10;99.90
14670;DHT22;7423;48.722;9.350;2023-02-12T11:40:28;10.10;99.90
14670;DHT22;7423;48.722;9.350;2023-02-12T11:43:06;10.20;99.90
14670;DHT22;7423;48.722;9.350;2023-02-12T11:45:41;10.20;99.90
14670;DHT22;7423;48.722;9.350;2023-02-12T11:48:19;10.20;99.90
14670;DHT22;7423;48.722;9.350;2023-02-12T11:50:52;10.20;99.90
14670;DHT22;7423;48.722;9.350;2023-02-12T11:53:29;10.20;99.90
14670;DHT22;7423;48.722;9.350;2023-02-12T11:56:02;10.20;99.90
14670;DHT22;7423;48.722;9.350;2023-02-12T11:58:30;10.30;99.90
14670;DHT22;7423;48.722;9.350;2023-02-12T12:04:07;10.30;99.90
14670;DHT22;7423;48.722;9.350;2023-02-12T12:06:45;10.30;99.90
14670;DHT22;7423;48.722;9.350;2023-02-12T12:12:21;10.40;99.90
14670;DHT22;7423;48.722;9.350;2023-02-12T12:14:54;10.40;99.90
14670;DHT22;7423;48.722;9.350;2023-02-12T12:17:54;10.50;99.90
14670;DHT22;7423;48.722;9.350;2023-02-12T12:20:51;10.50;99.90
14670;DHT22;7423;48.722;9.350;2023-02-12T12:23:36;10.50;99.90
14670;DHT22;7423;48.722;9.350;2023-02-12T12:26:23;10.60;99.90
14670;DHT22;7423;48.722;9.350;2023-02-12T12:29:12;10.60;99.90
14670;DHT22;7423;48.722;9.350;2023-02-12T12:31:44;10.70;99.90
14670;DHT22;7423;48.722;9.350;2023-02-12T12:51:28;10.90;99.90
14670;DHT22;7423;48.722;9.350;2023-02-12T13:00:14;11.00;99.90
14670;DHT22;7423;48.722;9.350;2023-02-12T13:03:25;11.00;99.90
14670;DHT22;7423;48.722;9.350;2023-02-12T13:15:32;11.10;99.90
14670;DHT22;7423;48.722;9.350;2023-02-12T13:21:01;11.20;99.90
14670;DHT22;7423;48.722;9.350;2023-02-12T13:23:35;11.20;99.90
14670;DHT22;7423;48.722;9.350;2023-02-12T13:26:28;11.30;99.90
14670;DHT22;7423;48.722;9.350;2023-02-12T13:31:43;11.30;99.90
14670;DHT22;7423;48.722;9.350;2023-02-12T13:34:16;11.30;99.90
14670;DHT22;7423;48.722;9.350;2023-02-12T13:36:44;11.30;99.90
14670;DHT22;7423;48.722;9.350;2023-02-12T13:39:45;11.30;99.90
14670;DHT22;7423;48.722;9.350;2023-02-12T13:53:29;11.40;99.90
14670;DHT22;7423;48.722;9.350;2023-02-12T14:07:42;11.50;99.90
14670;DHT22;7423;48.722;9.350;2023-02-12T14:10:37;11.60;99.90
14670;DHT22;7423;48.722;9.350;2023-02-12T14:13:15;11.70;99.90
14670;DHT22;7423;48.722;9.350;2023-02-12T14:15:52;11.70;99.90
14670;DHT22;7423;48.722;9.350;2023-02-12T14:18:33;11.70;99.90
14670;DHT22;7423;48.722;9.350;2023-02-12T14:23:46;11.40;99.90
14670;DHT22;7423;48.722;9.350;2023-02-12T14:26:14;11.50;99.90
14670;DHT22;7423;48.722;9.350;2023-02-12T14:28:51;11.60;99.90
14670;DHT22;7423;48.722;9.350;2023-02-12T14:36:37;11.90;99.90
14670;DHT22;7423;48.722;9.350;2023-02-12T14:46:53;11.90;99.90
14670;DHT22;7423;48.722;9.350;2023-02-12T14:49:47;12.00;99.90
14670;DHT22;7423;48.722;9.350;2023-02-12T14:52:22;12.10;99.90
14670;DHT22;7423;48.722;9.350;2023-02-12T14:54:53;12.00;99.90
14670;DHT22;7423;48.722;9.350;2023-02-12T14:57:42;12.10;99.90
14670;DHT22;7423;48.722;9.350;2023-02-12T15:00:19;12.10;99.90
14670;DHT22;7423;48.722;9.350;2023-02-12T15:03:01;12.10;99.90
14670;DHT22;7423;48.722;9.350;2023-02-12T15:08:48;12.10;99.90
14670;DHT22;7423;48.722;9.350;2023-02-12T15:11:25;12.10;99.90
14670;DHT22;7423;48.722;9.350;2023-02-12T15:14:05;12.10;99.90
14670;DHT22;7423;48.722;9.350;2023-02-12T15:19:51;12.10;99.90
14670;DHT22;7423;48.722;9.350;2023-02-12T15:22:30;12.10;99.90
14670;DHT22;7423;48.722;9.350;2023-02-12T15:28:09;11.80;99.90
14670;DHT22;7423;48.722;9.350;2023-02-12T15:30:45;11.90;99.90
14670;DHT22;7423;48.722;9.350;2023-02-12T15:33:23;11.90;99.90
14670;DHT22;7423;48.722;9.350;2023-02-12T15:35:54;12.00;99.90
14670;DHT22;7423;48.722;9.350;2023-02-12T15:38:33;12.00;99.90
14670;DHT22;7423;48.722;9.350;2023-02-12T15:41:03;12.10;99.90
14670;DHT22;7423;48.722;9.350;2023-02-12T15:43:32;12.10;99.90
14670;DHT22;7423;48.722;9.350;2023-02-12T15:46:03;12.10;99.90
14670;DHT22;7423;48.722;9.350;2023-02-12T15:48:34;12.20;99.90
14670;DHT22;7423;48.722;9.350;2023-02-12T15:51:36;12.10;99.90
14670;DHT22;7423;48.722;9.350;2023-02-12T15:54:05;12.10;99.90
14670;DHT22;7423;48.722;9.350;2023-02-12T15:56:33;12.10;99.90
14670;DHT22;7423;48.722;9.350;2023-02-12T15:59:02;12.10;99.90
14670;DHT22;7423;48.722;9.350;2023-02-12T16:01:33;12.10;99.90
14670;DHT22;7423;48.722;9.350;2023-02-12T16:04:03;12.10;99.90
14670;DHT22;7423;48.722;9.350;2023-02-12T16:06:33;12.10;99.90
14670;DHT22;7423;48.722;9.350;2023-02-12T16:09:27;12.10;99.90
14670;DHT22;7423;48.722;9.350;2023-02-12T16:12:00;12.10;99.90
14670;DHT22;7423;48.722;9.350;2023-02-12T16:14:40;12.00;99.90
14670;DHT22;7423;48.722;9.350;2023-02-12T16:22:36;12.00;99.90
14670;DHT22;7423;48.722;9.350;2023-02-12T16:25:15;11.90;99.90
14670;DHT22;7423;48.722;9.350;2023-02-12T16:28:13;11.80;99.90
14670;DHT22;7423;48.722;9.350;2023-02-12T16:30:44;11.80;99.90
14670;DHT22;7423;48.722;9.350;2023-02-12T16:33:34;11.80;99.90
14670;DHT22;7423;48.722;9.350;2023-02-12T16:36:28;11.70;99.90
14670;DHT22;7423;48.722;9.350;2023-02-12T16:39:01;11.70;99.90
14670;DHT22;7423;48.722;9.350;2023-02-12T16:41:49;11.70;99.90
14670;DHT22;7423;48.722;9.350;2023-02-12T16:44:24;11.70;99.90
14670;DHT22;7423;48.722;9.350;2023-02-12T16:46:55;11.60;99.90
14670;DHT22;7423;48.722;9.350;2023-02-12T16:49:25;11.60;99.90
14670;DHT22;7423;48.722;9.350;2023-02-12T16:51:54;11.50;99.90
14670;DHT22;7423;48.722;9.350;2023-02-12T16:55:13;11.50;99.90
14670;DHT22;7423;48.722;9.350;2023-02-12T16:57:42;11.40;99.90
14670;DHT22;7423;48.722;9.350;2023-02-12T17:00:15;11.30;99.90
14670;DHT22;7423;48.722;9.350;2023-02-12T17:02:42;11.20;99.90
14670;DHT22;7423;48.722;9.350;2023-02-12T17:05:10;11.20;99.90
14670;DHT22;7423;48.722;9.350;2023-02-12T17:07:36;11.10;99.90
14670;DHT22;7423;48.722;9.350;2023-02-12T17:10:04;11.10;99.90
14670;DHT22;7423;48.722;9.350;2023-02-12T17:12:31;11.00;99.90
14670;DHT22;7423;48.722;9.350;2023-02-12T17:15:03;10.90;99.90
14670;DHT22;7423;48.722;9.350;2023-02-12T17:17:30;10.80;99.90
14670;DHT22;7423;48.722;9.350;2023-02-12T17:19:57;10.80;99.90
14670;DHT22;7423;48.722;9.350;2023-02-12T17:22:26;10.70;99.90
14670;DHT22;7423;48.722;9.350;2023-02-12T17:24:53;10.60;99.90
14670;DHT22;7423;48.722;9.350;2023-02-12T17:27:20;10.60;99.90
14670;DHT22;7423;48.722;9.350;2023-02-12T17:29:47;10.50;99.90
14670;DHT22;7423;48.722;9.350;2023-02-12T17:32:14;10.50;99.90
14670;DHT22;7423;48.722;9.350;2023-02-12T17:34:41;10.40;99.90
14670;DHT22;7423;48.722;9.350;2023-02-12T17:37:14;10.30;99.90
14670;DHT22;7423;48.722;9.350;2023-02-12T17:39:42;10.30;99.90
14670;DHT22;7423;48.722;9.350;2023-02-12T17:42:08;10.20;99.90
14670;DHT22;7423;48.722;9.350;2023-02-12T17:44:35;10.20;99.90
14670;DHT22;7423;48.722;9.350;2023-02-12T17:47:02;10.10;99.90
14670;DHT22;7423;48.722;9.350;2023-02-12T17:49:29;10.00;99.90
14670;DHT22;7423;48.722;9.350;2023-02-12T17:51:56;10.00;99.90
14670;DHT22;7423;48.722;9.350;2023-02-12T17:54:23;9.80;99.90
14670;DHT22;7423;48.722;9.350;2023-02-12T17:56:50;9.80;99.90
14670;DHT22;7423;48.722;9.350;2023-02-12T17:59:17;9.70;99.90
14670;DHT22;7423;48.722;9.350;2023-02-12T18:01:44;9.70;99.90
14670;DHT22;7423;48.722;9.350;2023-02-12T18:04:11;9.70;99.90
14670;DHT22;7423;48.722;9.350;2023-02-12T18:06:38;9.70;99.90
14670;DHT22;7423;48.722;9.350;2023-02-12T18:09:05;9.60;99.90
14670;DHT22;7423;48.722;9.350;2023-02-12T18:11:32;9.50;99.90
14670;DHT22;7423;48.722;9.350;2023-02-12T18:13:59;9.50;99.90
14670;DHT22;7423;48.722;9.350;2023-02-12T18:16:30;9.50;99.90
14670;DHT22;7423;48.722;9.350;2023-02-12T18:18:59;9.40;99.90
14670;DHT22;7423;48.722;9.350;2023-02-12T18:21:29;9.30;99.90
14670;DHT22;7423;48.722;9.350;2023-02-12T18:23:56;9.30;99.90
14670;DHT22;7423;48.722;9.350;2023-02-12T18:26:23;9.30;99.90
14670;DHT22;7423;48.722;9.350;2023-02-12T18:28:50;9.20;99.90
14670;DHT22;7423;48.722;9.350;2023-02-12T18:31:20;9.20;99.90
14670;DHT22;7423;48.722;9.350;2023-02-12T18:33:47;9.10;99.90
14670;DHT22;7423;48.722;9.350;2023-02-12T18:36:15;9.10;99.90
14670;DHT22;7423;48.722;9.350;2023-02-12T18:38:45;9.00;99.90
14670;DHT22;7423;48.722;9.350;2023-02-12T18:41:16;8.90;99.90
14670;DHT22;7423;48.722;9.350;2023-02-12T18:43:48;8.90;99.90
14670;DHT22;7423;48.722;9.350;2023-02-12T18:46:18;8.90;99.90
14670;DHT22;7423;48.722;9.350;2023-02-12T18:48:47;8.80;99.90
14670;DHT22;7423;48.722;9.350;2023-02-12T18:51:23;8.80;99.90
14670;DHT22;7423;48.722;9.350;2023-02-12T18:53:56;8.70;99.90
14670;DHT22;7423;48.722;9.350;2023-02-12T18:56:29;8.70;99.90
14670;DHT22;7423;48.722;9.350;2023-02-12T18:58:59;8.70;99.90
14670;DHT22;7423;48.722;9.350;2023-02-12T19:01:31;8.60;99.90
14670;DHT22;7423;48.722;9.350;2023-02-12T19:04:02;8.60;99.90
14670;DHT22;7423;48.722;9.350;2023-02-12T19:06:32;8.60;99.90
14670;DHT22;7423;48.722;9.350;2023-02-12T19:09:02;8.60;99.90
14670;DHT22;7423;48.722;9.350;2023-02-12T19:11:30;8.60;99.90